WAKK/MKQ METAR and TAF weather

Enter ICAO airport designator
Station Type Date Time Source
WAKK METAR 2022/11/30 23:30 UTC NOAA

WAKK 302330Z 34009KT 9999 BKN015 28/25 Q1005 NOSIG


Station Type Date Time Source
WAKK Decoded METAR 2022/11/30 23:30 UTC NOAA

Merauke / Mopah, Indonesia (WAKK) 08-28S 140-23E 3M
Nov 30, 2022 - 06:30 PM EST / 2022.11.30 2330 UTC
Wind: from the NNW (340 degrees) at 10 MPH (9 KT):0
Visibility: greater than 7 mile(s):0
Sky conditions: mostly cloudy
Temperature: 82 F (28 C)
Dew Point: 77 F (25 C)
Relative Humidity: 83%
Pressure (altimeter): 29.68 in. Hg (1005 hPa)
ob: WAKK 302330Z 34009KT 9999 BKN015 28/25 Q1005 NOSIG
cycle: 23

Station Type Date Time Source
WAKK TAF 2013/03/11 12:00 UTC NOAA

TAF WAKK 111100Z 1112/1212 34006KT 9999 SCT018
BECMG 1122/1124 30012KT
TEMPO 1200/1202 7000 -RA FEW017CB
BECMG 1208/1210 29006KT

Example: see airport list